sensor_id;sensor_type;location;lat;lon;timestamp;temperature;humidity
6841;DHT22;3458;53.678;14.080;2023-05-28T00:02:09;14.40;68.20
6841;DHT22;3458;53.678;14.080;2023-05-28T00:04:35;14.40;68.10
6841;DHT22;3458;53.678;14.080;2023-05-28T00:07:01;14.30;68.40
6841;DHT22;3458;53.678;14.080;2023-05-28T00:09:26;14.30;68.60
6841;DHT22;3458;53.678;14.080;2023-05-28T00:11:52;14.20;68.80
6841;DHT22;3458;53.678;14.080;2023-05-28T00:14:17;14.10;68.90
6841;DHT22;3458;53.678;14.080;2023-05-28T00:16:43;14.10;69.40
6841;DHT22;3458;53.678;14.080;2023-05-28T00:19:10;14.10;69.40
6841;DHT22;3458;53.678;14.080;2023-05-28T00:21:35;14.10;69.80
6841;DHT22;3458;53.678;14.080;2023-05-28T00:24:02;14.10;69.90
6841;DHT22;3458;53.678;14.080;2023-05-28T00:26:28;14.00;70.20
6841;DHT22;3458;53.678;14.080;2023-05-28T00:28:53;14.00;70.40
6841;DHT22;3458;53.678;14.080;2023-05-28T00:31:19;14.00;70.60
6841;DHT22;3458;53.678;14.080;2023-05-28T00:33:45;14.00;70.70
6841;DHT22;3458;53.678;14.080;2023-05-28T00:36:12;13.90;70.70
6841;DHT22;3458;53.678;14.080;2023-05-28T00:38:37;13.90;71.00
6841;DHT22;3458;53.678;14.080;2023-05-28T00:41:03;13.90;71.10
6841;DHT22;3458;53.678;14.080;2023-05-28T00:43:28;13.80;71.00
6841;DHT22;3458;53.678;14.080;2023-05-28T00:45:57;13.80;71.20
6841;DHT22;3458;53.678;14.080;2023-05-28T00:48:23;13.80;71.50
6841;DHT22;3458;53.678;14.080;2023-05-28T00:50:49;13.70;71.60
6841;DHT22;3458;53.678;14.080;2023-05-28T00:53:15;13.70;71.80
6841;DHT22;3458;53.678;14.080;2023-05-28T00:55:41;13.70;72.00
6841;DHT22;3458;53.678;14.080;2023-05-28T00:58:06;13.70;72.20
6841;DHT22;3458;53.678;14.080;2023-05-28T01:00:36;13.70;72.50
6841;DHT22;3458;53.678;14.080;2023-05-28T01:03:05;13.70;72.60
6841;DHT22;3458;53.678;14.080;2023-05-28T01:05:31;13.60;72.60
6841;DHT22;3458;53.678;14.080;2023-05-28T01:08:01;13.60;72.70
6841;DHT22;3458;53.678;14.080;2023-05-28T01:10:28;13.60;73.00
6841;DHT22;3458;53.678;14.080;2023-05-28T01:12:54;13.50;73.10
6841;DHT22;3458;53.678;14.080;2023-05-28T01:15:21;13.50;73.10
6841;DHT22;3458;53.678;14.080;2023-05-28T01:17:48;13.50;73.20
6841;DHT22;3458;53.678;14.080;2023-05-28T01:20:14;13.50;73.40
6841;DHT22;3458;53.678;14.080;2023-05-28T01:22:45;13.40;73.50
6841;DHT22;3458;53.678;14.080;2023-05-28T01:25:12;13.40;73.70
6841;DHT22;3458;53.678;14.080;2023-05-28T01:27:41;13.40;73.90
6841;DHT22;3458;53.678;14.080;2023-05-28T01:30:08;13.30;73.90
6841;DHT22;3458;53.678;14.080;2023-05-28T01:32:37;13.30;74.00
6841;DHT22;3458;53.678;14.080;2023-05-28T01:35:05;13.20;74.10
6841;DHT22;3458;53.678;14.080;2023-05-28T01:37:37;13.30;74.30
6841;DHT22;3458;53.678;14.080;2023-05-28T01:40:04;13.20;74.30
6841;DHT22;3458;53.678;14.080;2023-05-28T01:42:31;13.20;74.70
6841;DHT22;3458;53.678;14.080;2023-05-28T01:44:57;13.20;74.90
6841;DHT22;3458;53.678;14.080;2023-05-28T01:47:23;13.20;74.80
6841;DHT22;3458;53.678;14.080;2023-05-28T01:49:49;13.10;74.80
6841;DHT22;3458;53.678;14.080;2023-05-28T01:52:15;13.10;75.10
6841;DHT22;3458;53.678;14.080;2023-05-28T01:54:41;13.10;75.30
6841;DHT22;3458;53.678;14.080;2023-05-28T01:57:06;13.10;75.40
6841;DHT22;3458;53.678;14.080;2023-05-28T01:59:32;13.10;75.70
6841;DHT22;3458;53.678;14.080;2023-05-28T02:01:58;13.00;75.80
6841;DHT22;3458;53.678;14.080;2023-05-28T02:04:24;13.00;76.10
6841;DHT22;3458;53.678;14.080;2023-05-28T02:06:49;12.90;76.20
6841;DHT22;3458;53.678;14.080;2023-05-28T02:09:15;12.90;76.10
6841;DHT22;3458;53.678;14.080;2023-05-28T02:11:41;12.90;75.80
6841;DHT22;3458;53.678;14.080;2023-05-28T02:14:06;12.80;75.60
6841;DHT22;3458;53.678;14.080;2023-05-28T02:16:32;12.80;75.70
6841;DHT22;3458;53.678;14.080;2023-05-28T02:18:58;12.80;75.70
6841;DHT22;3458;53.678;14.080;2023-05-28T02:21:24;12.70;75.60
6841;DHT22;3458;53.678;14.080;2023-05-28T02:23:50;12.60;75.90
6841;DHT22;3458;53.678;14.080;2023-05-28T02:26:16;12.60;76.30
6841;DHT22;3458;53.678;14.080;2023-05-28T02:28:42;12.60;76.80
6841;DHT22;3458;53.678;14.080;2023-05-28T02:31:09;12.60;77.00
6841;DHT22;3458;53.678;14.080;2023-05-28T02:33:37;12.60;77.30
6841;DHT22;3458;53.678;14.080;2023-05-28T02:36:03;12.60;77.60
6841;DHT22;3458;53.678;14.080;2023-05-28T02:38:28;12.50;77.70
6841;DHT22;3458;53.678;14.080;2023-05-28T02:40:54;12.50;78.00
6841;DHT22;3458;53.678;14.080;2023-05-28T02:43:19;12.50;78.20
6841;DHT22;3458;53.678;14.080;2023-05-28T02:45:45;12.50;78.40
6841;DHT22;3458;53.678;14.080;2023-05-28T02:48:10;12.50;78.30
6841;DHT22;3458;53.678;14.080;2023-05-28T02:50:36;12.50;78.60
6841;DHT22;3458;53.678;14.080;2023-05-28T02:53:02;12.50;78.50
6841;DHT22;3458;53.678;14.080;2023-05-28T02:55:28;12.50;78.80
6841;DHT22;3458;53.678;14.080;2023-05-28T02:57:53;12.40;78.80
6841;DHT22;3458;53.678;14.080;2023-05-28T03:00:19;12.40;79.00
6841;DHT22;3458;53.678;14.080;2023-05-28T03:02:45;12.40;79.30
6841;DHT22;3458;53.678;14.080;2023-05-28T03:05:10;12.40;79.40
6841;DHT22;3458;53.678;14.080;2023-05-28T03:07:36;12.40;79.40
6841;DHT22;3458;53.678;14.080;2023-05-28T03:10:02;12.40;79.50
6841;DHT22;3458;53.678;14.080;2023-05-28T03:12:28;12.30;79.60
6841;DHT22;3458;53.678;14.080;2023-05-28T03:14:53;12.30;79.90
6841;DHT22;3458;53.678;14.080;2023-05-28T03:17:19;12.30;80.10
6841;DHT22;3458;53.678;14.080;2023-05-28T03:19:45;12.30;80.20
6841;DHT22;3458;53.678;14.080;2023-05-28T03:22:10;12.30;80.60
6841;DHT22;3458;53.678;14.080;2023-05-28T03:24:36;12.20;80.70
6841;DHT22;3458;53.678;14.080;2023-05-28T03:27:04;12.20;81.00
6841;DHT22;3458;53.678;14.080;2023-05-28T03:29:30;12.20;81.20
6841;DHT22;3458;53.678;14.080;2023-05-28T03:31:56;12.20;81.50
6841;DHT22;3458;53.678;14.080;2023-05-28T03:34:21;12.20;81.50
6841;DHT22;3458;53.678;14.080;2023-05-28T03:36:49;12.20;81.90
6841;DHT22;3458;53.678;14.080;2023-05-28T03:39:14;12.20;82.20
6841;DHT22;3458;53.678;14.080;2023-05-28T03:41:40;12.20;82.40
6841;DHT22;3458;53.678;14.080;2023-05-28T03:44:07;12.20;82.30
6841;DHT22;3458;53.678;14.080;2023-05-28T03:46:33;12.10;82.20
6841;DHT22;3458;53.678;14.080;2023-05-28T03:48:58;12.10;82.60
6841;DHT22;3458;53.678;14.080;2023-05-28T03:51:24;12.10;83.00
6841;DHT22;3458;53.678;14.080;2023-05-28T03:53:50;12.10;83.30
6841;DHT22;3458;53.678;14.080;2023-05-28T03:56:16;12.10;83.60
6841;DHT22;3458;53.678;14.080;2023-05-28T03:58:43;12.10;83.80
6841;DHT22;3458;53.678;14.080;2023-05-28T04:01:09;12.10;84.10
6841;DHT22;3458;53.678;14.080;2023-05-28T04:03:35;12.20;84.60
6841;DHT22;3458;53.678;14.080;2023-05-28T04:06:00;12.10;85.50
6841;DHT22;3458;53.678;14.080;2023-05-28T04:08:26;12.20;85.20
6841;DHT22;3458;53.678;14.080;2023-05-28T04:10:52;12.20;85.40
6841;DHT22;3458;53.678;14.080;2023-05-28T04:13:17;12.20;85.80
6841;DHT22;3458;53.678;14.080;2023-05-28T04:15:43;12.20;86.20
6841;DHT22;3458;53.678;14.080;2023-05-28T04:18:08;12.20;86.90
6841;DHT22;3458;53.678;14.080;2023-05-28T04:20:34;12.20;87.40
6841;DHT22;3458;53.678;14.080;2023-05-28T04:23:01;12.20;88.00
6841;DHT22;3458;53.678;14.080;2023-05-28T04:25:27;12.30;88.30
6841;DHT22;3458;53.678;14.080;2023-05-28T04:27:52;12.30;88.80
6841;DHT22;3458;53.678;14.080;2023-05-28T04:30:18;12.30;89.30
6841;DHT22;3458;53.678;14.080;2023-05-28T04:32:43;12.30;89.60
6841;DHT22;3458;53.678;14.080;2023-05-28T04:35:09;12.30;90.00
6841;DHT22;3458;53.678;14.080;2023-05-28T04:37:34;12.40;90.20
6841;DHT22;3458;53.678;14.080;2023-05-28T04:40:03;12.40;90.50
6841;DHT22;3458;53.678;14.080;2023-05-28T04:42:29;12.50;90.70
6841;DHT22;3458;53.678;14.080;2023-05-28T04:44:55;12.40;91.00
6841;DHT22;3458;53.678;14.080;2023-05-28T04:47:20;12.50;91.80
6841;DHT22;3458;53.678;14.080;2023-05-28T04:49:47;12.50;91.80
6841;DHT22;3458;53.678;14.080;2023-05-28T04:52:14;12.50;92.00
6841;DHT22;3458;53.678;14.080;2023-05-28T04:54:39;12.60;92.30
6841;DHT22;3458;53.678;14.080;2023-05-28T04:57:05;12.60;92.60
6841;DHT22;3458;53.678;14.080;2023-05-28T04:59:30;12.60;92.90
6841;DHT22;3458;53.678;14.080;2023-05-28T05:01:56;12.70;93.30
6841;DHT22;3458;53.678;14.080;2023-05-28T05:04:22;12.80;93.30
6841;DHT22;3458;53.678;14.080;2023-05-28T05:06:47;12.80;93.50
6841;DHT22;3458;53.678;14.080;2023-05-28T05:09:13;12.80;93.70
6841;DHT22;3458;53.678;14.080;2023-05-28T05:11:38;12.90;94.10
6841;DHT22;3458;53.678;14.080;2023-05-28T05:14:04;12.90;94.50
6841;DHT22;3458;53.678;14.080;2023-05-28T05:16:29;13.00;94.80
6841;DHT22;3458;53.678;14.080;2023-05-28T05:18:55;13.00;95.00
6841;DHT22;3458;53.678;14.080;2023-05-28T05:21:20;13.10;95.30
6841;DHT22;3458;53.678;14.080;2023-05-28T05:23:46;13.10;96.00
6841;DHT22;3458;53.678;14.080;2023-05-28T05:26:12;13.10;96.60
6841;DHT22;3458;53.678;14.080;2023-05-28T05:28:38;13.10;97.10
6841;DHT22;3458;53.678;14.080;2023-05-28T05:31:04;13.20;97.30
6841;DHT22;3458;53.678;14.080;2023-05-28T05:33:29;13.20;97.70
6841;DHT22;3458;53.678;14.080;2023-05-28T05:35:55;13.30;97.90
6841;DHT22;3458;53.678;14.080;2023-05-28T05:38:20;13.30;98.40
6841;DHT22;3458;53.678;14.080;2023-05-28T05:40:46;13.40;98.70
6841;DHT22;3458;53.678;14.080;2023-05-28T05:43:11;13.40;98.60
6841;DHT22;3458;53.678;14.080;2023-05-28T05:45:37;13.60;99.10
6841;DHT22;3458;53.678;14.080;2023-05-28T05:48:02;13.60;99.30
6841;DHT22;3458;53.678;14.080;2023-05-28T05:50:28;13.60;99.50
6841;DHT22;3458;53.678;14.080;2023-05-28T05:52:54;13.70;99.90
6841;DHT22;3458;53.678;14.080;2023-05-28T05:55:20;13.80;99.90
6841;DHT22;3458;53.678;14.080;2023-05-28T05:57:45;13.80;99.90
6841;DHT22;3458;53.678;14.080;2023-05-28T06:00:12;13.90;99.90
6841;DHT22;3458;53.678;14.080;2023-05-28T06:02:38;13.90;99.90
6841;DHT22;3458;53.678;14.080;2023-05-28T06:05:04;14.00;99.90
6841;DHT22;3458;53.678;14.080;2023-05-28T06:07:31;14.00;99.90
6841;DHT22;3458;53.678;14.080;2023-05-28T06:09:57;14.00;99.60
6841;DHT22;3458;53.678;14.080;2023-05-28T06:12:22;14.10;99.70
6841;DHT22;3458;53.678;14.080;2023-05-28T06:14:48;14.10;99.70
6841;DHT22;3458;53.678;14.080;2023-05-28T06:17:14;14.10;99.90
6841;DHT22;3458;53.678;14.080;2023-05-28T06:19:40;14.20;99.70
6841;DHT22;3458;53.678;14.080;2023-05-28T06:22:06;14.20;99.40
6841;DHT22;3458;53.678;14.080;2023-05-28T06:24:33;14.30;99.40
6841;DHT22;3458;53.678;14.080;2023-05-28T06:26:58;14.40;99.40
6841;DHT22;3458;53.678;14.080;2023-05-28T06:29:24;14.40;99.40
6841;DHT22;3458;53.678;14.080;2023-05-28T06:31:50;14.50;99.30
6841;DHT22;3458;53.678;14.080;2023-05-28T06:34:16;14.50;99.10
6841;DHT22;3458;53.678;14.080;2023-05-28T06:36:41;14.60;98.90
6841;DHT22;3458;53.678;14.080;2023-05-28T06:39:07;14.60;98.70
6841;DHT22;3458;53.678;14.080;2023-05-28T06:41:34;14.70;98.60
6841;DHT22;3458;53.678;14.080;2023-05-28T06:44:00;14.70;98.60
6841;DHT22;3458;53.678;14.080;2023-05-28T06:46:25;14.80;98.70
6841;DHT22;3458;53.678;14.080;2023-05-28T06:48:53;14.90;98.50
6841;DHT22;3458;53.678;14.080;2023-05-28T06:51:18;14.90;98.40
6841;DHT22;3458;53.678;14.080;2023-05-28T06:53:44;15.00;98.60
6841;DHT22;3458;53.678;14.080;2023-05-28T06:56:09;15.00;98.80
6841;DHT22;3458;53.678;14.080;2023-05-28T06:58:35;15.10;98.80
6841;DHT22;3458;53.678;14.080;2023-05-28T07:01:00;15.10;98.40
6841;DHT22;3458;53.678;14.080;2023-05-28T07:03:28;15.10;98.50
6841;DHT22;3458;53.678;14.080;2023-05-28T07:05:54;15.20;98.60
6841;DHT22;3458;53.678;14.080;2023-05-28T07:08:19;15.30;98.60
6841;DHT22;3458;53.678;14.080;2023-05-28T07:10:45;15.40;98.50
6841;DHT22;3458;53.678;14.080;2023-05-28T07:13:10;15.40;97.90
6841;DHT22;3458;53.678;14.080;2023-05-28T07:15:36;15.50;97.20
6841;DHT22;3458;53.678;14.080;2023-05-28T07:18:01;15.50;97.00
6841;DHT22;3458;53.678;14.080;2023-05-28T07:20:27;15.50;96.70
6841;DHT22;3458;53.678;14.080;2023-05-28T07:22:53;15.60;96.00
6841;DHT22;3458;53.678;14.080;2023-05-28T07:25:18;15.70;95.50
6841;DHT22;3458;53.678;14.080;2023-05-28T07:27:44;15.70;94.90
6841;DHT22;3458;53.678;14.080;2023-05-28T07:30:10;15.80;94.60
6841;DHT22;3458;53.678;14.080;2023-05-28T07:32:35;15.80;94.30
6841;DHT22;3458;53.678;14.080;2023-05-28T07:35:01;15.90;94.60
6841;DHT22;3458;53.678;14.080;2023-05-28T07:37:26;15.90;94.30
6841;DHT22;3458;53.678;14.080;2023-05-28T07:39:52;16.00;94.20
6841;DHT22;3458;53.678;14.080;2023-05-28T07:42:19;16.10;93.30
6841;DHT22;3458;53.678;14.080;2023-05-28T07:44:44;16.20;92.90
6841;DHT22;3458;53.678;14.080;2023-05-28T07:47:11;16.20;92.30
6841;DHT22;3458;53.678;14.080;2023-05-28T07:49:36;16.30;92.60
6841;DHT22;3458;53.678;14.080;2023-05-28T07:52:02;16.40;92.00
6841;DHT22;3458;53.678;14.080;2023-05-28T07:54:27;16.40;91.30
6841;DHT22;3458;53.678;14.080;2023-05-28T07:56:53;16.50;91.20
6841;DHT22;3458;53.678;14.080;2023-05-28T07:59:18;16.50;91.60
6841;DHT22;3458;53.678;14.080;2023-05-28T08:01:49;16.50;91.30
6841;DHT22;3458;53.678;14.080;2023-05-28T08:04:15;16.60;91.30
6841;DHT22;3458;53.678;14.080;2023-05-28T08:06:40;16.60;90.60
6841;DHT22;3458;53.678;14.080;2023-05-28T08:09:06;16.80;91.10
6841;DHT22;3458;53.678;14.080;2023-05-28T08:11:31;16.80;90.40
6841;DHT22;3458;53.678;14.080;2023-05-28T08:13:57;16.90;89.60
6841;DHT22;3458;53.678;14.080;2023-05-28T08:16:23;17.10;89.90
6841;DHT22;3458;53.678;14.080;2023-05-28T08:18:49;17.20;87.40
6841;DHT22;3458;53.678;14.080;2023-05-28T08:21:14;17.20;86.30
6841;DHT22;3458;53.678;14.080;2023-05-28T08:23:40;17.30;86.00
6841;DHT22;3458;53.678;14.080;2023-05-28T08:26:05;17.30;85.80
6841;DHT22;3458;53.678;14.080;2023-05-28T08:28:31;17.40;87.30
6841;DHT22;3458;53.678;14.080;2023-05-28T08:30:57;17.40;84.90
6841;DHT22;3458;53.678;14.080;2023-05-28T08:33:23;17.50;84.10
6841;DHT22;3458;53.678;14.080;2023-05-28T08:35:48;17.50;83.50
6841;DHT22;3458;53.678;14.080;2023-05-28T08:38:14;17.60;82.40
6841;DHT22;3458;53.678;14.080;2023-05-28T08:40:41;17.70;80.50
6841;DHT22;3458;53.678;14.080;2023-05-28T08:43:08;17.70;79.90
6841;DHT22;3458;53.678;14.080;2023-05-28T08:45:34;17.80;80.40
6841;DHT22;3458;53.678;14.080;2023-05-28T08:48:00;18.00;81.60
6841;DHT22;3458;53.678;14.080;2023-05-28T08:50:27;18.10;79.20
6841;DHT22;3458;53.678;14.080;2023-05-28T08:52:53;18.20;78.50
6841;DHT22;3458;53.678;14.080;2023-05-28T08:55:19;18.20;78.30
6841;DHT22;3458;53.678;14.080;2023-05-28T08:57:46;18.30;77.50
6841;DHT22;3458;53.678;14.080;2023-05-28T09:00:12;18.30;77.90
6841;DHT22;3458;53.678;14.080;2023-05-28T09:02:38;18.30;78.30
6841;DHT22;3458;53.678;14.080;2023-05-28T09:05:05;18.40;76.80
6841;DHT22;3458;53.678;14.080;2023-05-28T09:07:31;18.50;75.60
6841;DHT22;3458;53.678;14.080;2023-05-28T09:09:57;18.60;76.10
6841;DHT22;3458;53.678;14.080;2023-05-28T09:12:23;18.80;75.70
6841;DHT22;3458;53.678;14.080;2023-05-28T09:14:51;18.90;75.00
6841;DHT22;3458;53.678;14.080;2023-05-28T09:17:34;18.90;74.40
6841;DHT22;3458;53.678;14.080;2023-05-28T09:20:01;19.00;73.60
6841;DHT22;3458;53.678;14.080;2023-05-28T09:22:27;19.00;70.70
6841;DHT22;3458;53.678;14.080;2023-05-28T09:24:54;18.90;68.60
6841;DHT22;3458;53.678;14.080;2023-05-28T09:27:20;18.90;68.90
6841;DHT22;3458;53.678;14.080;2023-05-28T09:29:48;18.90;69.90
6841;DHT22;3458;53.678;14.080;2023-05-28T09:32:18;18.80;69.90
6841;DHT22;3458;53.678;14.080;2023-05-28T09:34:45;18.80;67.90
6841;DHT22;3458;53.678;14.080;2023-05-28T09:37:11;18.70;68.50
6841;DHT22;3458;53.678;14.080;2023-05-28T09:39:36;18.70;70.50
6841;DHT22;3458;53.678;14.080;2023-05-28T09:42:05;18.70;71.80
6841;DHT22;3458;53.678;14.080;2023-05-28T09:44:39;18.70;72.40
6841;DHT22;3458;53.678;14.080;2023-05-28T09:47:16;18.70;71.80
6841;DHT22;3458;53.678;14.080;2023-05-28T09:49:45;18.80;71.30
6841;DHT22;3458;53.678;14.080;2023-05-28T09:52:19;18.90;71.60
6841;DHT22;3458;53.678;14.080;2023-05-28T09:54:53;18.90;70.20
6841;DHT22;3458;53.678;14.080;2023-05-28T09:57:26;18.90;70.10
6841;DHT22;3458;53.678;14.080;2023-05-28T09:59:54;18.90;69.50
6841;DHT22;3458;53.678;14.080;2023-05-28T10:05:14;19.30;72.60
6841;DHT22;3458;53.678;14.080;2023-05-28T10:07:41;19.50;73.00
6841;DHT22;3458;53.678;14.080;2023-05-28T10:10:11;19.70;69.60
6841;DHT22;3458;53.678;14.080;2023-05-28T10:12:38;19.80;68.50
6841;DHT22;3458;53.678;14.080;2023-05-28T10:15:06;20.10;69.90
6841;DHT22;3458;53.678;14.080;2023-05-28T10:17:32;20.30;66.80
6841;DHT22;3458;53.678;14.080;2023-05-28T10:19:58;20.30;65.80
6841;DHT22;3458;53.678;14.080;2023-05-28T10:22:23;20.30;64.60
6841;DHT22;3458;53.678;14.080;2023-05-28T10:24:49;20.30;65.80
6841;DHT22;3458;53.678;14.080;2023-05-28T10:27:16;20.40;66.20
6841;DHT22;3458;53.678;14.080;2023-05-28T10:29:43;20.60;66.40
6841;DHT22;3458;53.678;14.080;2023-05-28T10:32:09;20.60;66.40
6841;DHT22;3458;53.678;14.080;2023-05-28T10:34:36;20.60;65.70
6841;DHT22;3458;53.678;14.080;2023-05-28T10:37:09;20.60;64.30
6841;DHT22;3458;53.678;14.080;2023-05-28T10:39:42;20.60;63.80
6841;DHT22;3458;53.678;14.080;2023-05-28T10:42:09;20.60;62.10
6841;DHT22;3458;53.678;14.080;2023-05-28T10:44:53;20.60;61.20
6841;DHT22;3458;53.678;14.080;2023-05-28T10:47:40;20.50;61.90
6841;DHT22;3458;53.678;14.080;2023-05-28T10:52:34;20.70;62.90
6841;DHT22;3458;53.678;14.080;2023-05-28T10:55:18;20.60;61.90
6841;DHT22;3458;53.678;14.080;2023-05-28T10:57:47;20.70;62.20
6841;DHT22;3458;53.678;14.080;2023-05-28T11:00:22;20.90;61.50
6841;DHT22;3458;53.678;14.080;2023-05-28T11:02:51;21.00;60.50
6841;DHT22;3458;53.678;14.080;2023-05-28T11:05:25;21.10;60.60
6841;DHT22;3458;53.678;14.080;2023-05-28T11:07:51;21.40;63.10
6841;DHT22;3458;53.678;14.080;2023-05-28T11:10:18;21.60;63.60
6841;DHT22;3458;53.678;14.080;2023-05-28T11:12:47;21.80;62.90
6841;DHT22;3458;53.678;14.080;2023-05-28T11:15:13;21.70;61.40
6841;DHT22;3458;53.678;14.080;2023-05-28T11:17:40;21.70;59.60
6841;DHT22;3458;53.678;14.080;2023-05-28T11:20:21;21.80;57.00
6841;DHT22;3458;53.678;14.080;2023-05-28T11:22:47;22.00;57.50
6841;DHT22;3458;53.678;14.080;2023-05-28T11:25:13;22.10;58.30
6841;DHT22;3458;53.678;14.080;2023-05-28T11:27:39;22.00;58.10
6841;DHT22;3458;53.678;14.080;2023-05-28T11:30:10;22.00;56.90
6841;DHT22;3458;53.678;14.080;2023-05-28T11:32:37;22.10;57.00
6841;DHT22;3458;53.678;14.080;2023-05-28T11:35:03;22.40;57.00
6841;DHT22;3458;53.678;14.080;2023-05-28T11:37:32;22.40;57.80
6841;DHT22;3458;53.678;14.080;2023-05-28T11:39:58;22.40;58.10
6841;DHT22;3458;53.678;14.080;2023-05-28T11:42:26;22.50;58.10
6841;DHT22;3458;53.678;14.080;2023-05-28T11:44:52;22.40;57.80
6841;DHT22;3458;53.678;14.080;2023-05-28T11:47:18;22.40;56.50
6841;DHT22;3458;53.678;14.080;2023-05-28T11:49:45;22.50;55.90
6841;DHT22;3458;53.678;14.080;2023-05-28T11:52:13;22.70;55.40
6841;DHT22;3458;53.678;14.080;2023-05-28T11:54:39;23.00;55.80
6841;DHT22;3458;53.678;14.080;2023-05-28T11:57:08;23.60;55.30
6841;DHT22;3458;53.678;14.080;2023-05-28T11:59:34;24.30;54.10
6841;DHT22;3458;53.678;14.080;2023-05-28T12:02:15;25.30;52.70
6841;DHT22;3458;53.678;14.080;2023-05-28T12:04:57;25.70;50.10
6841;DHT22;3458;53.678;14.080;2023-05-28T12:07:33;26.50;49.00
6841;DHT22;3458;53.678;14.080;2023-05-28T12:10:06;27.90;48.40
6841;DHT22;3458;53.678;14.080;2023-05-28T12:12:33;29.40;45.40
6841;DHT22;3458;53.678;14.080;2023-05-28T12:15:01;30.50;43.20
6841;DHT22;3458;53.678;14.080;2023-05-28T12:17:33;31.20;41.40
6841;DHT22;3458;53.678;14.080;2023-05-28T12:20:05;31.70;40.20
6841;DHT22;3458;53.678;14.080;2023-05-28T12:22:32;31.60;38.20
6841;DHT22;3458;53.678;14.080;2023-05-28T12:24:58;31.00;37.60
6841;DHT22;3458;53.678;14.080;2023-05-28T12:27:24;30.90;37.10
6841;DHT22;3458;53.678;14.080;2023-05-28T12:29:49;30.10;37.40
6841;DHT22;3458;53.678;14.080;2023-05-28T12:32:15;29.00;38.30
6841;DHT22;3458;53.678;14.080;2023-05-28T12:34:41;27.70;38.80
6841;DHT22;3458;53.678;14.080;2023-05-28T12:37:06;26.60;39.50
6841;DHT22;3458;53.678;14.080;2023-05-28T12:39:32;25.50;39.80
6841;DHT22;3458;53.678;14.080;2023-05-28T12:41:58;24.80;42.60
6841;DHT22;3458;53.678;14.080;2023-05-28T12:44:23;24.10;44.00
6841;DHT22;3458;53.678;14.080;2023-05-28T12:46:49;23.80;44.70
6841;DHT22;3458;53.678;14.080;2023-05-28T12:49:16;23.60;46.60
6841;DHT22;3458;53.678;14.080;2023-05-28T12:51:41;23.70;48.30
6841;DHT22;3458;53.678;14.080;2023-05-28T12:54:07;24.40;48.60
6841;DHT22;3458;53.678;14.080;2023-05-28T12:56:32;25.50;47.80
6841;DHT22;3458;53.678;14.080;2023-05-28T12:58:59;26.60;45.80
6841;DHT22;3458;53.678;14.080;2023-05-28T13:01:24;27.40;42.80
6841;DHT22;3458;53.678;14.080;2023-05-28T13:03:51;28.00;42.40
6841;DHT22;3458;53.678;14.080;2023-05-28T13:06:17;28.60;40.30
6841;DHT22;3458;53.678;14.080;2023-05-28T13:08:43;28.80;39.00
6841;DHT22;3458;53.678;14.080;2023-05-28T13:11:09;29.20;39.10
6841;DHT22;3458;53.678;14.080;2023-05-28T13:13:34;28.50;38.20
6841;DHT22;3458;53.678;14.080;2023-05-28T13:16:00;26.90;38.40
6841;DHT22;3458;53.678;14.080;2023-05-28T13:18:26;26.00;39.40
6841;DHT22;3458;53.678;14.080;2023-05-28T13:20:51;25.20;40.50
6841;DHT22;3458;53.678;14.080;2023-05-28T13:23:17;24.80;42.20
6841;DHT22;3458;53.678;14.080;2023-05-28T13:25:42;24.40;42.10
6841;DHT22;3458;53.678;14.080;2023-05-28T13:28:08;24.20;42.50
6841;DHT22;3458;53.678;14.080;2023-05-28T13:30:33;24.50;43.30
6841;DHT22;3458;53.678;14.080;2023-05-28T13:32:59;25.00;42.80
6841;DHT22;3458;53.678;14.080;2023-05-28T13:35:24;25.40;41.90
6841;DHT22;3458;53.678;14.080;2023-05-28T13:37:50;25.80;41.20
6841;DHT22;3458;53.678;14.080;2023-05-28T13:40:17;26.10;40.60
6841;DHT22;3458;53.678;14.080;2023-05-28T13:42:44;26.30;40.10
6841;DHT22;3458;53.678;14.080;2023-05-28T13:45:10;26.00;40.20
6841;DHT22;3458;53.678;14.080;2023-05-28T13:47:36;26.10;40.20
6841;DHT22;3458;53.678;14.080;2023-05-28T13:50:02;26.70;40.30
6841;DHT22;3458;53.678;14.080;2023-05-28T13:52:29;27.50;38.80
6841;DHT22;3458;53.678;14.080;2023-05-28T13:54:54;28.10;37.60
6841;DHT22;3458;53.678;14.080;2023-05-28T13:57:20;28.50;36.10
6841;DHT22;3458;53.678;14.080;2023-05-28T13:59:46;28.80;35.50
6841;DHT22;3458;53.678;14.080;2023-05-28T14:02:11;29.40;35.00
6841;DHT22;3458;53.678;14.080;2023-05-28T14:04:37;29.70;33.60
6841;DHT22;3458;53.678;14.080;2023-05-28T14:07:02;29.70;32.90
6841;DHT22;3458;53.678;14.080;2023-05-28T14:09:28;29.70;33.40
6841;DHT22;3458;53.678;14.080;2023-05-28T14:11:54;29.90;33.00
6841;DHT22;3458;53.678;14.080;2023-05-28T14:14:21;30.30;33.20
6841;DHT22;3458;53.678;14.080;2023-05-28T14:16:46;30.50;32.80
6841;DHT22;3458;53.678;14.080;2023-05-28T14:19:12;30.90;32.60
6841;DHT22;3458;53.678;14.080;2023-05-28T14:21:37;30.90;31.60
6841;DHT22;3458;53.678;14.080;2023-05-28T14:24:03;30.90;31.40
6841;DHT22;3458;53.678;14.080;2023-05-28T14:26:28;31.10;31.90
6841;DHT22;3458;53.678;14.080;2023-05-28T14:28:54;31.20;31.60
6841;DHT22;3458;53.678;14.080;2023-05-28T14:31:19;31.30;31.10
6841;DHT22;3458;53.678;14.080;2023-05-28T14:33:45;31.30;32.00
6841;DHT22;3458;53.678;14.080;2023-05-28T14:36:10;31.60;31.40
6841;DHT22;3458;53.678;14.080;2023-05-28T14:38:36;31.70;29.90
6841;DHT22;3458;53.678;14.080;2023-05-28T14:41:01;31.80;29.80
6841;DHT22;3458;53.678;14.080;2023-05-28T14:43:28;32.00;29.80
6841;DHT22;3458;53.678;14.080;2023-05-28T14:45:55;32.10;29.30
6841;DHT22;3458;53.678;14.080;2023-05-28T14:48:21;32.20;29.00
6841;DHT22;3458;53.678;14.080;2023-05-28T14:50:46;32.20;29.30
6841;DHT22;3458;53.678;14.080;2023-05-28T14:53:12;32.20;29.20
6841;DHT22;3458;53.678;14.080;2023-05-28T14:55:37;32.30;29.10
6841;DHT22;3458;53.678;14.080;2023-05-28T14:58:03;32.40;28.90
6841;DHT22;3458;53.678;14.080;2023-05-28T15:00:29;32.30;28.50
6841;DHT22;3458;53.678;14.080;2023-05-28T15:02:54;32.40;28.80
6841;DHT22;3458;53.678;14.080;2023-05-28T15:05:20;32.30;28.50
6841;DHT22;3458;53.678;14.080;2023-05-28T15:07:45;32.20;28.50
6841;DHT22;3458;53.678;14.080;2023-05-28T15:10:11;31.80;28.30
6841;DHT22;3458;53.678;14.080;2023-05-28T15:12:36;31.70;28.90
6841;DHT22;3458;53.678;14.080;2023-05-28T15:15:02;31.90;28.80
6841;DHT22;3458;53.678;14.080;2023-05-28T15:17:29;32.20;28.70
6841;DHT22;3458;53.678;14.080;2023-05-28T15:19:54;32.30;28.30
6841;DHT22;3458;53.678;14.080;2023-05-28T15:22:20;32.30;28.00
6841;DHT22;3458;53.678;14.080;2023-05-28T15:24:46;32.40;28.10
6841;DHT22;3458;53.678;14.080;2023-05-28T15:27:12;32.40;28.00
6841;DHT22;3458;53.678;14.080;2023-05-28T15:29:38;32.30;27.60
6841;DHT22;3458;53.678;14.080;2023-05-28T15:32:09;32.30;27.70
6841;DHT22;3458;53.678;14.080;2023-05-28T15:34:35;32.40;27.50
6841;DHT22;3458;53.678;14.080;2023-05-28T15:37:01;32.60;27.80
6841;DHT22;3458;53.678;14.080;2023-05-28T15:39:27;32.60;27.10
6841;DHT22;3458;53.678;14.080;2023-05-28T15:41:54;32.50;27.10
6841;DHT22;3458;53.678;14.080;2023-05-28T15:44:20;32.40;26.90
6841;DHT22;3458;53.678;14.080;2023-05-28T15:46:46;32.00;27.00